Time;durP1;ratioP1;P1;durP2;ratioP2;P2;SDS_P1;SDS_P2;PMS_P1;PMS_P2;Temp;Humidity;BMP_temperature;BMP_pressure;BME280_temperature;BME280_humidity;BME280_pressure;Samples;Min_cycle;Max_cycle;Signal;HPM_P1;HPM_P2
2023/04/19 00:01:53;;;;;;;23.67;20.63;;;10.80;14.50;;;;;;4979971;28;20269;-91
2023/04/19 00:04:19;;;;;;;24.10;21.50;;;10.80;15.40;;;;;;4979196;28;20179;-91
2023/04/19 00:06:53;;;;;;;23.77;21.37;;;10.80;15.00;;;;;;4979369;28;20186;-89
2023/04/19 00:09:24;;;;;;;23.20;20.57;;;10.70;15.10;;;;;;4979337;28;20190;-91
2023/04/19 00:12:03;;;;;;;24.97;22.30;;;10.80;16.60;;;;;;4979704;28;20222;-91
2023/04/19 00:14:39;;;;;;;25.03;22.47;;;10.70;19.20;;;;;;5002992;28;20190;-91
2023/04/19 00:20:54;;;;;;;24.17;21.57;;;10.60;19.70;;;;;;4942173;28;20197;-91
2023/04/19 00:27:13;;;;;;;25.77;23.07;;;10.60;20.30;;;;;;4973774;28;20181;-91
2023/04/19 00:30:15;;;;;;;23.50;20.30;;;10.60;21.40;;;;;;4995109;28;20187;-91
2023/04/19 00:37:04;;;;;;;25.10;21.67;;;10.50;22.10;;;;;;4914836;29;20197;-91
2023/04/19 00:40:04;;;;;;;24.70;21.77;;;10.50;23.20;;;;;;4906568;29;20526;-92
2023/04/19 00:43:07;;;;;;;24.07;21.10;;;10.50;23.60;;;;;;4908952;29;20281;-91
2023/04/19 00:46:18;;;;;;;23.27;20.73;;;10.50;24.80;;;;;;4981706;28;20178;-91
2023/04/19 00:52:46;;;;;;;24.23;21.63;;;10.40;27.70;;;;;;4965545;28;20259;-93
2023/04/19 00:56:09;;;;;;;;;;;;;;;;;;;;;
2023/04/19 00:58:51;;;;;;;24.50;21.90;;;10.30;27.80;;;;;;4937688;29;20192;-92
2023/04/19 01:01:35;;;;;;;;;;;;;;;;;;;;;
2023/04/19 01:04:04;;;;;;;24.97;21.87;;;10.30;27.90;;;;;;4973630;28;20744;-91
2023/04/19 01:06:34;;;;;;;25.87;22.77;;;10.30;30.10;;;;;;4991607;28;20648;-91
2023/04/19 01:09:09;;;;;;;25.00;22.00;;;10.30;30.00;;;;;;4978554;28;20199;-92
2023/04/19 01:11:51;;;;;;;25.67;21.87;;;10.20;29.80;;;;;;4976360;28;20223;-91
2023/04/19 01:14:20;;;;;;;26.87;23.70;;;10.20;30.90;;;;;;4974709;28;20211;-91
2023/04/19 01:17:00;;;;;;;;;;;;;;;;;;;;;
2023/04/19 01:19:30;;;;;;;25.17;22.03;;;10.20;32.90;;;;;;4981623;28;20171;-90
2023/04/19 01:21:59;;;;;;;24.47;21.87;;;10.10;32.00;;;;;;4981103;28;20233;-91
2023/04/19 01:24:26;;;;;;;26.47;23.63;;;10.10;32.80;;;;;;4978423;28;20662;-92
2023/04/19 01:26:55;;;;;;;27.20;23.93;;;10.00;34.90;;;;;;4977513;28;20647;-92
2023/04/19 01:29:21;;;;;;;28.00;21.20;;;10.00;34.80;;;;;;4983674;28;20203;-93
2023/04/19 01:31:53;;;;;;;25.30;22.37;;;10.20;35.50;;;;;;5015884;28;20214;-92
2023/04/19 01:34:25;;;;;;;25.93;21.43;;;10.00;35.70;;;;;;4996386;28;20289;-92
2023/04/19 01:37:11;;;;;;;27.90;24.27;;;10.00;35.40;;;;;;4994221;28;20730;-93
2023/04/19 01:39:51;;;;;;;26.83;22.97;;;10.00;36.80;;;;;;4979214;28;20171;-92
2023/04/19 01:42:28;;;;;;;26.30;23.60;;;9.90;37.80;;;;;;4978018;28;20665;-92
2023/04/19 01:44:58;;;;;;;25.17;22.57;;;9.90;38.60;;;;;;4977683;28;20639;-91
2023/04/19 01:47:31;;;;;;;27.77;23.57;;;9.90;38.90;;;;;;4977573;28;20198;-92
2023/04/19 01:49:57;;;;;;;27.00;23.10;;;9.90;40.20;;;;;;4976910;28;20710;-91
2023/04/19 01:52:29;;;;;;;25.17;22.47;;;9.80;41.00;;;;;;4993364;28;20842;-91
2023/04/19 01:54:57;;;;;;;26.33;23.13;;;9.90;41.50;;;;;;4980379;28;20595;-91
2023/04/19 01:57:33;;;;;;;26.07;22.63;;;9.90;40.60;;;;;;4977056;28;20175;-91
2023/04/19 02:03:36;;;;;;;26.23;23.43;;;9.90;42.20;;;;;;4971314;28;20623;-91
2023/04/19 02:06:51;;;;;;;;;;;;;;;;;;;;;
2023/04/19 02:10:05;;;;;;;;;;;;;;;;;;;;;
2023/04/19 02:16:31;;;;;;;26.17;22.93;;;9.90;40.70;;;;;;4897247;29;20178;-91
2023/04/19 02:18:59;;;;;;;25.63;21.27;;;9.90;41.80;;;;;;4900399;29;20190;-91
2023/04/19 02:31:07;;;;;;;26.10;22.93;;;10.00;42.70;;;;;;4942749;28;20215;-92
2023/04/19 02:34:31;;;;;;;;;;;;;;;;;;;;;
2023/04/19 02:37:25;;;;;;;25.53;22.10;;;10.00;41.90;;;;;;4920743;29;20269;-92
2023/04/19 02:40:51;;;;;;;;;;;;;;;;;;;;;
2023/04/19 02:47:26;;;;;;;;;;;;;;;;;;;;;
2023/04/19 02:50:51;;;;;;;;;;;;;;;;;;;;;
2023/04/19 02:53:27;;;;;;;24.17;21.67;;;10.30;36.20;;;;;;5013193;28;20191;-91
2023/04/19 02:56:21;;;;;;;;;;;;;;;;;;;;;
2023/04/19 02:59:27;;;;;;;;;;;;;;;;;;;;;
2023/04/19 03:05:39;;;;;;;;;;;;;;;;;;;;;
2023/04/19 03:35:21;;;;;;;22.23;19.63;;;10.70;27.30;;;;;;4974462;28;20215;-91
2023/04/19 03:44:45;;;;;;;25.20;20.23;;;10.70;27.10;;;;;;4918451;29;20230;-92
2023/04/19 03:51:25;;;;;;;;;;;;;;;;;;;;;
2023/04/19 03:57:49;;;;;;;24.33;20.07;;;10.70;30.30;;;;;;4934362;29;20240;-91
2023/04/19 04:04:43;;;;;;;22.80;20.37;;;10.70;28.70;;;;;;4836078;29;20188;-92
2023/04/19 04:07:28;;;;;;;22.73;20.27;;;10.70;29.30;;;;;;4875226;29;20295;-92
2023/04/19 04:10:14;;;;;;;23.17;20.67;;;10.70;29.70;;;;;;4939211;29;20230;-92
2023/04/19 04:12:52;;;;;;;23.20;20.47;;;10.70;29.80;;;;;;4938996;29;20196;-92
2023/04/19 04:15:20;;;;;;;25.93;20.73;;;10.70;29.50;;;;;;4968162;29;20188;-91
2023/04/19 04:18:19;;;;;;;22.90;19.87;;;10.70;29.60;;;;;;4953839;29;20247;-92
2023/04/19 04:24:06;;;;;;;20.83;18.63;;;10.70;29.60;;;;;;4888669;29;20191;-91
2023/04/19 04:27:02;;;;;;;22.97;20.57;;;10.60;32.60;;;;;;4954124;29;20192;-91
2023/04/19 04:33:37;;;;;;;25.43;20.83;;;10.70;34.10;;;;;;4823370;29;20201;-91
2023/04/19 04:37:02;;;;;;;21.07;17.93;;;10.60;35.30;;;;;;4822582;29;20189;-91
2023/04/19 04:39:42;;;;;;;;;;;;;;;;;;;;;
2023/04/19 04:46:01;;;;;;;22.00;19.70;;;10.60;36.40;;;;;;4880016;29;20187;-91
2023/04/19 04:58:41;;;;;;;26.33;21.17;;;10.60;39.40;;;;;;4811614;29;20170;-90
2023/04/19 05:02:04;;;;;;;22.23;19.53;;;10.60;42.00;;;;;;4813576;29;20186;-91
2023/04/19 05:08:22;;;;;;;25.10;19.93;;;10.60;42.00;;;;;;4902746;29;20209;-90
2023/04/19 05:11:31;;;;;;;23.40;20.27;;;10.60;43.60;;;;;;4943909;28;20207;-91
2023/04/19 05:14:32;;;;;;;23.53;20.03;;;10.60;44.10;;;;;;4957938;29;20225;-91
2023/04/19 05:21:19;;;;;;;;;;;;;;;;;;;;;
2023/04/19 05:24:43;;;;;;;27.30;21.40;;;10.70;43.90;;;;;;4937594;29;20534;-91
2023/04/19 05:27:40;;;;;;;25.30;21.03;;;10.70;45.90;;;;;;4937755;29;20188;-91
2023/04/19 05:30:22;;;;;;;25.27;21.20;;;10.70;46.00;;;;;;4940159;29;20220;-91
2023/04/19 05:33:05;;;;;;;25.10;19.50;;;10.70;46.20;;;;;;4930083;29;20185;-90
2023/04/19 05:35:39;;;;;;;24.73;19.37;;;10.70;46.80;;;;;;4943220;29;20189;-91
2023/04/19 05:42:12;;;;;;;25.87;20.33;;;10.70;47.10;;;;;;4841602;29;20266;-90
2023/04/19 05:44:53;;;;;;;24.03;19.60;;;10.70;47.70;;;;;;4865682;29;20763;-91
2023/04/19 05:47:37;;;;;;;27.13;22.10;;;10.70;48.40;;;;;;4898936;29;20223;-92
2023/04/19 05:54:12;;;;;;;24.80;20.13;;;10.80;48.70;;;;;;4857059;29;20187;-89
2023/04/19 05:56:39;;;;;;;24.53;21.40;;;10.80;49.50;;;;;;4861497;29;20796;-88
2023/04/19 05:59:07;;;;;;;26.77;21.00;;;10.80;50.90;;;;;;4952951;29;20191;-87
2023/04/19 06:02:38;;;;;;;26.17;22.93;;;10.80;50.30;;;;;;4909405;28;20641;-91
2023/04/19 06:05:45;;;;;;;24.53;20.83;;;10.90;50.10;;;;;;4943825;29;20192;-89
2023/04/19 06:08:15;;;;;;;27.00;22.33;;;10.90;47.90;;;;;;4943559;29;20199;-90
2023/04/19 06:10:55;;;;;;;25.00;20.00;;;10.90;50.00;;;;;;4943207;29;20224;-91
2023/04/19 06:13:46;;;;;;;;;;;;;;;;;;;;;
2023/04/19 06:16:33;;;;;;;24.83;22.13;;;10.90;51.20;;;;;;4940852;29;20187;-90
2023/04/19 06:19:44;;;;;;;26.87;21.70;;;10.90;52.00;;;;;;4924247;29;20184;-93
2023/04/19 06:22:44;;;;;;;27.37;22.07;;;10.90;50.40;;;;;;4926415;29;20192;-90
2023/04/19 06:25:12;;;;;;;28.43;23.50;;;10.90;53.10;;;;;;4925896;29;20189;-91
2023/04/19 06:27:38;;;;;;;25.73;21.73;;;10.90;52.80;;;;;;4934366;29;20195;-92
2023/04/19 06:31:07;;;;;;;26.63;20.73;;;11.00;52.10;;;;;;4946082;29;20193;-89
2023/04/19 06:34:00;;;;;;;23.37;20.87;;;11.00;54.60;;;;;;4911129;29;20192;-90
2023/04/19 06:36:40;;;;;;;23.90;21.17;;;11.00;53.40;;;;;;4959225;29;20648;-91
2023/04/19 06:40:11;;;;;;;24.87;22.13;;;11.20;52.30;;;;;;4931453;29;20199;-95
2023/04/19 06:43:04;;;;;;;24.93;21.33;;;11.20;51.10;;;;;;4924528;28;20194;-91
2023/04/19 06:45:34;;;;;;;25.07;21.83;;;11.20;52.50;;;;;;4965697;29;20188;-95
2023/04/19 06:48:49;;;;;;;25.83;21.83;;;11.20;50.70;;;;;;4951309;29;20192;-92
2023/04/19 06:51:54;;;;;;;28.80;20.07;;;11.40;49.80;;;;;;4948854;28;20287;-90
2023/04/19 06:54:40;;;;;;;22.73;20.00;;;11.50;48.20;;;;;;4950057;29;20221;-92
2023/04/19 06:58:06;;;;;;;22.50;19.50;;;11.60;46.80;;;;;;4962651;28;20214;-93
2023/04/19 07:01:00;;;;;;;21.60;18.83;;;11.70;41.80;;;;;;4981026;28;20195;-92
2023/04/19 07:03:29;;;;;;;22.37;19.47;;;11.90;41.90;;;;;;4958555;28;20192;-94
2023/04/19 07:06:05;;;;;;;22.43;18.27;;;12.00;36.60;;;;;;4970117;29;20200;-96
2023/04/19 07:08:46;;;;;;;21.13;18.37;;;12.10;32.30;;;;;;4939457;29;20211;-92
2023/04/19 07:11:25;;;;;;;19.90;17.43;;;12.10;30.90;;;;;;4953375;29;20228;-90
2023/04/19 07:14:01;;;;;;;;;;;;;;;;;;;;;
2023/04/19 07:16:30;;;;;;;20.80;17.53;;;12.20;27.30;;;;;;4968008;28;20222;-90
2023/04/19 07:20:05;;;;;;;;;;;;;;;;;;;;;
2023/04/19 07:22:37;;;;;;;19.93;17.13;;;12.50;23.70;;;;;;4924114;29;20623;-90
2023/04/19 07:25:33;;;;;;;19.43;16.47;;;12.60;21.10;;;;;;4942921;29;20202;-92
2023/04/19 07:28:20;;;;;;;20.33;16.70;;;12.40;21.30;;;;;;4944382;29;20192;-89
2023/04/19 07:31:23;;;;;;;19.03;16.67;;;12.40;22.70;;;;;;4955619;29;20229;-91
2023/04/19 07:33:56;;;;;;;20.30;16.63;;;12.30;22.90;;;;;;4957018;28;20213;-90
2023/04/19 07:37:11;;;;;;;21.20;16.17;;;12.30;24.60;;;;;;4951823;29;20263;-89
2023/04/19 07:41:11;;;;;;;21.07;16.90;;;12.40;23.30;;;;;;4944409;28;20240;-92
2023/04/19 07:43:22;;;;;;;22.07;17.30;;;12.50;20.70;;;;;;4942369;29;20200;-93
2023/04/19 07:45:51;;;;;;;18.23;15.87;;;12.60;19.80;;;;;;4940156;29;20341;-89
2023/04/19 07:48:22;;;;;;;20.17;16.23;;;12.60;17.40;;;;;;4942371;29;20191;-91
2023/04/19 07:51:26;;;;;;;20.73;17.10;;;12.80;17.10;;;;;;4960331;29;20208;-89
2023/04/19 07:53:52;;;;;;;19.37;16.30;;;12.70;12.20;;;;;;4954963;28;20181;-89
2023/04/19 07:56:22;;;;;;;18.97;16.80;;;12.80;14.40;;;;;;4946203;29;20654;-86
2023/04/19 07:58:59;;;;;;;18.57;15.77;;;12.80;15.20;;;;;;4941022;29;20194;-87
2023/04/19 08:01:28;;;;;;;19.70;16.63;;;12.80;11.00;;;;;;4942231;29;20199;-87
2023/04/19 08:03:54;;;;;;;18.13;16.17;;;12.90;9.20;;;;;;4947370;29;20206;-89
2023/04/19 08:06:20;;;;;;;18.67;14.53;;;13.00;5.70;;;;;;4963010;29;20203;-87
2023/04/19 08:08:47;;;;;;;18.70;15.30;;;13.10;2.00;;;;;;4948318;29;20208;-88
2023/04/19 08:11:19;;;;;;;18.03;15.57;;;13.00;1.00;;;;;;4940631;29;20244;-88
2023/04/19 08:13:44;;;;;;;19.67;15.87;;;13.00;1.00;;;;;;4940523;29;20198;-87
2023/04/19 08:16:10;;;;;;;20.00;16.37;;;13.20;1.00;;;;;;4956116;29;20249;-88
2023/04/19 08:18:36;;;;;;;18.57;15.53;;;13.30;1.00;;;;;;4938243;29;20203;-89
2023/04/19 08:21:02;;;;;;;19.20;15.33;;;13.50;1.00;;;;;;4938388;29;20202;-88
2023/04/19 08:23:28;;;;;;;18.30;15.00;;;13.60;1.00;;;;;;4938740;29;20210;-86
2023/04/19 08:25:56;;;;;;;18.33;15.43;;;13.70;1.00;;;;;;4934794;29;20190;-87
2023/04/19 08:28:22;;;;;;;15.47;13.60;;;13.70;1.00;;;;;;4935426;29;20221;-89
2023/04/19 08:30:48;;;;;;;16.17;13.73;;;13.40;1.00;;;;;;4938830;29;20252;-88
2023/04/19 08:33:13;;;;;;;15.83;13.20;;;13.60;1.00;;;;;;4940545;29;20186;-96
2023/04/19 08:35:40;;;;;;;16.57;13.93;;;13.80;1.00;;;;;;4939177;29;20225;-93
2023/04/19 08:38:06;;;;;;;16.43;13.47;;;13.90;1.00;;;;;;4941908;29;20548;-90
2023/04/19 08:40:34;;;;;;;15.63;13.70;;;14.20;1.00;;;;;;4940948;29;20863;-90
2023/04/19 08:43:05;;;;;;;14.47;12.77;;;14.00;1.00;;;;;;4938338;29;20723;-91
2023/04/19 08:45:34;;;;;;;14.63;13.13;;;14.10;1.00;;;;;;4962306;29;20230;-92
2023/04/19 08:48:01;;;;;;;15.93;13.83;;;14.20;1.00;;;;;;4953493;29;20182;-90
2023/04/19 08:50:28;;;;;;;15.13;13.60;;;14.40;1.00;;;;;;4960834;29;20220;-86
2023/04/19 08:53:00;;;;;;;16.83;14.03;;;14.30;1.00;;;;;;4967279;29;20180;-88
2023/04/19 08:55:27;;;;;;;16.80;12.57;;;14.40;1.00;;;;;;4938188;29;20235;-90
2023/04/19 08:57:55;;;;;;;15.23;12.80;;;14.30;1.00;;;;;;4938483;29;20191;-89
2023/04/19 09:00:21;;;;;;;14.30;12.03;;;14.20;1.00;;;;;;4938584;29;20188;-88
2023/04/19 09:02:53;;;;;;;16.70;12.97;;;14.10;1.00;;;;;;4961879;28;20534;-88
2023/04/19 09:05:19;;;;;;;14.40;12.23;;;14.10;1.00;;;;;;4939939;29;20193;-88
2023/04/19 09:07:45;;;;;;;13.80;12.23;;;14.20;1.00;;;;;;4938661;29;20566;-88
2023/04/19 09:10:13;;;;;;;14.00;12.00;;;14.30;1.00;;;;;;4936595;29;20224;-88
2023/04/19 09:12:40;;;;;;;14.47;12.97;;;14.50;1.00;;;;;;4939773;29;20192;-89
2023/04/19 09:15:08;;;;;;;14.83;13.23;;;14.60;1.00;;;;;;4940194;29;20192;-90
2023/04/19 09:17:37;;;;;;;16.40;13.03;;;14.70;1.00;;;;;;4935988;29;20225;-87
2023/04/19 09:20:07;;;;;;;15.23;12.70;;;14.80;1.00;;;;;;4938626;29;20569;-87
2023/04/19 09:22:34;;;;;;;13.87;12.07;;;14.90;1.00;;;;;;4921022;29;20189;-85
2023/04/19 09:25:00;;;;;;;13.47;12.07;;;15.00;1.00;;;;;;4920303;29;20193;-87
2023/04/19 09:27:30;;;;;;;14.93;12.43;;;14.90;1.00;;;;;;4922146;29;20291;-86
2023/04/19 09:29:58;;;;;;;15.70;12.13;;;14.80;1.00;;;;;;4920564;29;20212;-86
2023/04/19 09:32:28;;;;;;;13.97;12.43;;;14.90;1.00;;;;;;4918861;29;20189;-85
2023/04/19 09:34:58;;;;;;;13.37;11.97;;;15.00;1.00;;;;;;4918702;29;20203;-86
2023/04/19 09:37:25;;;;;;;13.67;12.00;;;15.00;1.00;;;;;;4920328;29;20185;-86
2023/04/19 09:39:58;;;;;;;13.03;11.73;;;14.80;1.00;;;;;;4938761;29;20668;-86
2023/04/19 09:42:42;;;;;;;12.03;10.83;;;14.90;1.00;;;;;;4924556;29;20239;-87
2023/04/19 09:45:09;;;;;;;12.93;11.47;;;14.80;1.00;;;;;;4942544;29;20287;-85
2023/04/19 09:47:35;;;;;;;13.83;10.83;;;14.90;1.00;;;;;;4943287;29;20191;-86
2023/04/19 09:50:18;;;;;;;13.27;11.73;;;14.80;1.00;;;;;;4923011;29;20188;-85
2023/04/19 09:52:56;;;;;;;14.17;10.90;;;14.80;1.00;;;;;;4938475;29;20191;-86
2023/04/19 09:55:22;;;;;;;12.10;10.47;;;15.00;1.00;;;;;;4924758;29;20199;-85
2023/04/19 09:57:48;;;;;;;11.17;10.07;;;15.20;1.00;;;;;;4929034;29;20549;-85
2023/04/19 10:00:14;;;;;;;12.53;10.23;;;15.20;1.00;;;;;;4940536;29;20192;-85
2023/04/19 10:02:41;;;;;;;10.70;9.60;;;15.40;1.00;;;;;;4940844;29;20188;-85
2023/04/19 10:05:08;;;;;;;10.97;9.80;;;15.70;1.00;;;;;;4940914;29;20231;-84
2023/04/19 10:07:35;;;;;;;10.83;9.20;;;15.60;1.00;;;;;;4958123;29;20227;-85
2023/04/19 10:10:02;;;;;;;12.03;9.80;;;15.60;1.00;;;;;;4941236;29;20546;-85
2023/04/19 10:12:30;;;;;;;10.97;9.40;;;15.50;1.00;;;;;;4958714;29;20187;-85
2023/04/19 10:14:58;;;;;;;10.33;8.30;;;15.40;1.00;;;;;;4941002;29;20607;-83
2023/04/19 10:17:25;;;;;;;10.53;9.43;;;15.20;1.00;;;;;;4941034;29;20275;-85
2023/04/19 10:20:00;;;;;;;10.73;9.53;;;15.20;1.00;;;;;;4941380;29;20657;-84
2023/04/19 10:22:26;;;;;;;9.37;8.27;;;15.50;1.00;;;;;;4940794;29;20416;-84
2023/04/19 10:25:12;;;;;;;10.20;9.20;;;15.40;1.00;;;;;;4940821;29;20273;-85
2023/04/19 10:27:40;;;;;;;10.10;9.10;;;15.30;1.00;;;;;;4958317;29;20206;-84
2023/04/19 10:30:15;;;;;;;12.07;9.00;;;15.20;1.00;;;;;;4942241;29;20212;-87
2023/04/19 10:32:50;;;;;;;11.23;9.13;;;15.40;1.00;;;;;;4950004;29;20184;-84
2023/04/19 10:35:28;;;;;;;10.77;9.10;;;15.50;1.00;;;;;;4947868;29;20203;-86
2023/04/19 10:38:07;;;;;;;9.47;8.57;;;15.50;1.00;;;;;;4945710;29;20180;-85
2023/04/19 10:40:59;;;;;;;11.57;8.90;;;15.50;1.00;;;;;;4978219;29;20191;-85
2023/04/19 10:43:34;;;;;;;10.90;7.93;;;15.40;1.00;;;;;;4956517;28;20210;-86
2023/04/19 10:46:15;;;;;;;12.50;9.03;;;15.30;1.00;;;;;;4943614;29;20243;-83
2023/04/19 10:48:53;;;;;;;9.90;8.53;;;15.30;1.00;;;;;;4950697;29;20607;-85
2023/04/19 10:51:37;;;;;;;10.10;8.40;;;15.30;1.00;;;;;;4950907;29;20212;-85
2023/04/19 10:54:08;;;;;;;9.47;7.70;;;15.40;1.00;;;;;;4939624;29;20652;-82
2023/04/19 10:56:33;;;;;;;10.17;7.83;;;15.70;1.00;;;;;;4942984;29;20215;-84
2023/04/19 10:59:10;;;;;;;9.97;8.07;;;15.60;1.00;;;;;;4961528;29;20188;-85
2023/04/19 11:01:48;;;;;;;9.90;7.87;;;15.60;1.00;;;;;;4975450;28;20272;-83
2023/04/19 11:04:20;;;;;;;9.23;7.97;;;15.80;1.00;;;;;;4946802;29;20192;-83
2023/04/19 11:06:52;;;;;;;10.07;8.30;;;15.90;1.00;;;;;;4959545;29;20215;-84
2023/04/19 11:09:24;;;;;;;8.93;7.17;;;15.90;1.00;;;;;;4957030;29;20240;-85
2023/04/19 11:11:52;;;;;;;7.63;6.83;;;15.90;1.00;;;;;;4940067;29;20219;-84
2023/04/19 11:14:20;;;;;;;7.43;6.70;;;15.80;1.00;;;;;;4940190;29;20292;-84
2023/04/19 11:16:46;;;;;;;7.47;6.70;;;15.70;1.00;;;;;;4940249;29;20184;-84
2023/04/19 11:19:18;;;;;;;8.03;6.53;;;16.00;1.00;;;;;;4933361;29;20192;-85
2023/04/19 11:21:45;;;;;;;9.10;7.10;;;16.00;1.00;;;;;;4961977;29;20178;-86
2023/04/19 11:24:14;;;;;;;8.37;6.67;;;16.10;1.00;;;;;;4942932;29;20184;-85
2023/04/19 11:26:45;;;;;;;9.37;6.83;;;16.00;1.00;;;;;;4940770;29;20279;-84
2023/04/19 11:29:13;;;;;;;9.00;6.93;;;16.00;1.00;;;;;;4954842;29;20183;-83
2023/04/19 11:31:42;;;;;;;8.97;7.70;;;15.80;1.00;;;;;;4939204;29;20226;-83
2023/04/19 11:34:08;;;;;;;7.40;6.47;;;15.90;1.00;;;;;;4938713;29;20228;-83
2023/04/19 11:36:36;;;;;;;8.03;7.07;;;16.00;1.00;;;;;;4955880;29;20184;-83
2023/04/19 11:39:05;;;;;;;9.50;6.77;;;15.80;1.00;;;;;;4939230;29;20193;-82
2023/04/19 11:41:38;;;;;;;10.60;7.80;;;15.90;1.00;;;;;;4936186;29;20187;-83
2023/04/19 11:44:06;;;;;;;9.47;7.27;;;15.90;1.00;;;;;;4944811;29;20264;-82
2023/04/19 11:46:32;;;;;;;8.30;7.10;;;16.00;1.00;;;;;;4955365;29;20184;-82
2023/04/19 11:48:58;;;;;;;8.40;6.83;;;16.00;1.00;;;;;;4939366;29;20196;-83
2023/04/19 11:51:25;;;;;;;11.00;7.80;;;16.10;1.00;;;;;;4931399;29;20226;-83
2023/04/19 11:53:51;;;;;;;9.00;7.00;;;16.00;1.00;;;;;;4935800;29;20190;-83
2023/04/19 11:56:17;;;;;;;8.97;7.80;;;15.90;99.90;;;;;;4938189;29;20196;-82
2023/04/19 11:58:46;;;;;;;11.87;8.20;;;15.90;1.00;;;;;;4941182;29;20720;-81
2023/04/19 12:01:23;;;;;;;11.10;8.17;;;15.90;1.00;;;;;;4937527;29;20194;-85
2023/04/19 12:03:54;;;;;;;10.90;8.10;;;16.00;99.90;;;;;;4935971;29;20181;-82
2023/04/19 12:06:26;;;;;;;11.03;8.37;;;16.20;99.90;;;;;;4938544;29;20204;-84
2023/04/19 12:08:53;;;;;;;10.07;7.90;;;16.30;99.90;;;;;;4939936;29;20184;-82
2023/04/19 12:11:25;;;;;;;9.40;7.17;;;16.10;99.90;;;;;;4939374;29;20224;-84
2023/04/19 12:14:11;;;;;;;10.87;7.63;;;16.00;99.90;;;;;;4939049;29;20188;-83
2023/04/19 12:16:37;;;;;;;11.97;7.90;;;16.10;99.90;;;;;;4957236;29;20188;-84
2023/04/19 12:19:19;;;;;;;8.77;7.63;;;16.30;99.90;;;;;;4939112;29;20745;-84
2023/04/19 12:21:45;;;;;;;10.03;7.43;;;16.20;1.00;;;;;;4940645;29;20230;-84
2023/04/19 12:24:14;;;;;;;8.80;7.13;;;16.40;1.00;;;;;;4940566;29;20194;-84
2023/04/19 12:27:00;;;;;;;10.00;7.93;;;16.30;1.00;;;;;;4941056;29;20638;-84
2023/04/19 12:29:26;;;;;;;8.70;7.80;;;16.50;1.00;;;;;;4940873;29;20617;-83
2023/04/19 12:31:52;;;;;;;8.27;7.20;;;16.80;1.00;;;;;;4939798;29;20259;-83
2023/04/19 12:34:18;;;;;;;14.63;6.77;;;16.60;99.90;;;;;;4947326;29;20645;-83
2023/04/19 12:36:43;;;;;;;7.00;5.77;;;16.60;99.90;;;;;;4975233;29;20188;-84
2023/04/19 12:39:09;;;;;;;9.33;6.37;;;16.30;1.00;;;;;;4946574;29;20184;-84
2023/04/19 12:41:35;;;;;;;14.47;6.20;;;16.30;99.90;;;;;;4942211;28;20185;-83
2023/04/19 12:44:00;;;;;;;8.57;5.93;;;16.40;1.00;;;;;;4941031;29;20303;-85
2023/04/19 12:46:26;;;;;;;8.77;6.40;;;16.50;1.00;;;;;;4944371;29;20192;-84
2023/04/19 12:48:52;;;;;;;9.97;6.60;;;16.60;99.90;;;;;;4943881;29;20184;-85
2023/04/19 12:51:19;;;;;;;9.07;6.67;;;16.60;1.00;;;;;;4955770;29;20211;-86
2023/04/19 12:53:49;;;;;;;6.50;5.63;;;16.50;1.00;;;;;;4956942;29;20190;-85
2023/04/19 12:56:16;;;;;;;7.93;5.50;;;16.50;99.90;;;;;;4959754;29;20487;-85
2023/04/19 12:58:41;;;;;;;12.33;5.80;;;16.50;99.90;;;;;;4947942;29;20268;-85
2023/04/19 13:01:11;;;;;;;8.40;5.57;;;16.40;99.90;;;;;;4946224;29;20184;-85
2023/04/19 13:03:37;;;;;;;10.80;6.43;;;16.40;99.90;;;;;;4943274;29;20264;-85
2023/04/19 13:06:14;;;;;;;8.13;6.10;;;16.50;1.00;;;;;;4941365;29;20674;-86
2023/04/19 13:08:40;;;;;;;11.13;6.13;;;16.70;1.00;;;;;;4940162;29;20189;-84
2023/04/19 13:11:08;;;;;;;11.13;5.40;;;16.80;99.90;;;;;;4941843;28;20768;-85
2023/04/19 13:13:34;;;;;;;6.33;4.30;;;16.80;1.00;;;;;;4960944;29;20177;-84
2023/04/19 13:16:00;;;;;;;6.97;4.60;;;16.50;99.90;;;;;;4939305;29;20189;-83
2023/04/19 13:18:25;;;;;;;10.13;5.10;;;16.30;99.90;;;;;;4939256;29;20185;-84
2023/04/19 13:20:52;;;;;;;8.13;4.80;;;16.40;99.90;;;;;;4939720;29;20180;-85
2023/04/19 13:23:18;;;;;;;8.77;4.67;;;16.40;99.90;;;;;;4939530;29;20195;-84
2023/04/19 13:25:44;;;;;;;9.47;4.90;;;16.60;99.90;;;;;;4941878;29;20271;-85
2023/04/19 13:28:10;;;;;;;8.07;5.33;;;16.60;98.90;;;;;;4941768;29;20191;-86
2023/04/19 13:30:35;;;;;;;6.30;4.50;;;16.50;1.00;;;;;;4941938;29;20236;-84
2023/04/19 13:33:01;;;;;;;8.03;4.40;;;16.30;1.00;;;;;;4944266;29;20552;-84
2023/04/19 13:35:27;;;;;;;8.27;4.50;;;16.50;1.00;;;;;;4956664;29;20221;-84
2023/04/19 13:37:52;;;;;;;5.90;4.10;;;16.50;99.90;;;;;;4940342;29;20697;-86
2023/04/19 13:40:18;;;;;;;6.37;3.80;;;16.50;94.50;;;;;;4958687;29;20236;-85
2023/04/19 13:42:44;;;;;;;6.43;3.83;;;16.50;1.00;;;;;;4957126;28;20201;-86
2023/04/19 13:45:10;;;;;;;9.53;3.97;;;16.50;1.00;;;;;;4941290;29;20188;-84
2023/04/19 13:47:36;;;;;;;7.23;3.97;;;16.60;1.00;;;;;;4944158;29;20236;-83
2023/04/19 13:50:01;;;;;;;9.97;3.50;;;16.60;1.00;;;;;;4953760;29;20196;-83
2023/04/19 13:52:28;;;;;;;5.87;3.40;;;16.60;99.90;;;;;;4943768;29;20200;-86
2023/04/19 13:54:54;;;;;;;7.97;4.13;;;16.50;99.90;;;;;;4940592;29;20272;-84
2023/04/19 13:57:20;;;;;;;6.77;4.10;;;16.60;99.90;;;;;;4943382;29;20216;-85
2023/04/19 13:59:45;;;;;;;7.27;3.70;;;16.50;99.90;;;;;;4965687;29;20184;-86
2023/04/19 14:02:12;;;;;;;7.40;3.93;;;16.40;99.90;;;;;;4943956;29;20289;-83
2023/04/19 14:04:38;;;;;;;7.23;3.57;;;16.40;61.70;;;;;;4945146;29;20188;-84
2023/04/19 14:07:06;;;;;;;5.73;3.17;;;16.40;24.80;;;;;;4931003;29;20192;-83
2023/04/19 14:09:31;;;;;;;8.40;3.30;;;16.30;1.00;;;;;;4947904;29;20193;-83
2023/04/19 14:11:57;;;;;;;4.23;3.10;;;16.40;1.00;;;;;;4954374;29;20308;-84
2023/04/19 14:14:26;;;;;;;8.67;3.23;;;16.30;1.00;;;;;;4956580;29;20186;-84
2023/04/19 14:16:53;;;;;;;5.90;3.30;;;16.50;1.00;;;;;;4950312;29;20193;-83
2023/04/19 14:19:21;;;;;;;6.27;2.60;;;16.60;1.00;;;;;;4946962;29;20181;-84
2023/04/19 14:21:47;;;;;;;6.00;2.83;;;16.80;1.00;;;;;;4940239;29;20300;-85
2023/04/19 14:24:12;;;;;;;3.43;2.40;;;16.60;1.00;;;;;;4940797;29;20184;-84
2023/04/19 14:26:38;;;;;;;6.63;3.23;;;16.60;1.00;;;;;;4942979;29;20803;-85
2023/04/19 14:29:04;;;;;;;7.57;3.30;;;16.60;1.00;;;;;;4941982;29;20189;-84
2023/04/19 14:31:30;;;;;;;4.10;2.30;;;16.80;1.00;;;;;;4942282;29;20229;-84
2023/04/19 14:33:59;;;;;;;3.73;2.23;;;16.50;1.00;;;;;;4949596;29;20199;-86
2023/04/19 14:36:25;;;;;;;6.83;2.57;;;16.50;1.00;;;;;;4958917;29;20196;-84
2023/04/19 14:38:51;;;;;;;13.43;2.53;;;16.40;1.00;;;;;;4959326;28;20207;-86
2023/04/19 14:41:17;;;;;;;5.77;1.97;;;16.50;1.00;;;;;;4943147;29;20485;-84
2023/04/19 14:43:46;;;;;;;4.23;2.20;;;16.50;99.90;;;;;;4942112;29;20205;-84
2023/04/19 14:46:12;;;;;;;5.07;2.30;;;16.40;99.90;;;;;;4926592;29;20196;-84
2023/04/19 14:48:39;;;;;;;4.87;2.10;;;16.40;99.90;;;;;;4942144;29;20200;-85
2023/04/19 14:51:05;;;;;;;3.17;2.30;;;16.40;99.90;;;;;;4958927;29;20256;-84
2023/04/19 14:53:30;;;;;;;4.57;3.00;;;16.30;99.90;;;;;;4960001;29;20184;-85
2023/04/19 14:55:56;;;;;;;4.90;2.47;;;16.40;99.90;;;;;;4943216;29;20324;-83
2023/04/19 14:58:23;;;;;;;4.67;2.57;;;16.40;99.90;;;;;;4941784;29;20216;-83
2023/04/19 15:00:49;;;;;;;5.47;2.47;;;16.40;99.90;;;;;;4926464;29;20247;-85
2023/04/19 15:03:15;;;;;;;4.27;2.63;;;16.50;99.90;;;;;;4943200;29;20267;-85
2023/04/19 15:05:41;;;;;;;8.20;2.33;;;16.50;99.90;;;;;;4958178;29;20180;-85
2023/04/19 15:08:06;;;;;;;4.87;2.27;;;16.50;99.90;;;;;;4940136;29;20188;-85
2023/04/19 15:10:33;;;;;;;4.20;2.50;;;16.60;99.90;;;;;;4940404;29;20625;-84
2023/04/19 15:12:58;;;;;;;4.30;2.73;;;16.70;99.90;;;;;;4939595;29;20271;-85
2023/04/19 15:15:25;;;;;;;4.77;2.70;;;16.80;99.90;;;;;;4958149;29;20196;-84
2023/04/19 15:17:51;;;;;;;5.83;2.60;;;16.90;99.90;;;;;;4942511;29;20208;-84
2023/04/19 15:20:20;;;;;;;5.40;2.70;;;16.80;99.90;;;;;;4942013;29;20187;-83
2023/04/19 15:22:46;;;;;;;4.23;2.10;;;16.60;99.90;;;;;;4958751;29;20267;-84
2023/04/19 15:25:12;;;;;;;6.07;2.60;;;16.50;99.90;;;;;;4943189;29;20189;-84
2023/04/19 15:27:38;;;;;;;6.17;2.30;;;16.60;99.90;;;;;;4940126;29;20189;-83
2023/04/19 15:30:05;;;;;;;6.07;2.60;;;16.30;99.90;;;;;;4957105;29;20204;-84
2023/04/19 15:32:33;;;;;;;3.37;2.13;;;16.20;99.90;;;;;;4957729;29;20215;-83
2023/04/19 15:34:59;;;;;;;5.17;2.57;;;16.30;99.90;;;;;;4941321;29;20190;-87
2023/04/19 15:37:26;;;;;;;4.47;2.73;;;16.60;99.90;;;;;;4946751;29;20192;-84
2023/04/19 15:39:51;;;;;;;4.50;2.23;;;16.50;99.90;;;;;;4951892;29;20267;-85
2023/04/19 15:42:17;;;;;;;6.50;2.87;;;16.50;99.90;;;;;;4946682;29;20250;-84
2023/04/19 15:44:44;;;;;;;3.40;2.10;;;16.30;99.90;;;;;;4942539;29;20282;-84
2023/04/19 15:47:09;;;;;;;3.27;2.23;;;16.30;99.90;;;;;;4952732;28;20188;-85